createdAt,value
2019-03-31T00:01:40.248Z,80.99
2019-03-31T00:03:46.909Z,81.15
2019-03-31T00:05:53.572Z,81.40
2019-03-31T00:08:00.263Z,81.44
2019-03-31T00:10:08.834Z,81.57
2019-03-31T00:12:15.514Z,81.64
2019-03-31T00:14:22.210Z,81.34
2019-03-31T00:16:28.891Z,81.36
2019-03-31T00:18:35.596Z,81.44
2019-03-31T00:20:42.455Z,81.48
2019-03-31T00:22:49.122Z,81.84
2019-03-31T00:24:55.787Z,81.82
2019-03-31T00:27:02.523Z,81.85
2019-03-31T00:29:09.203Z,82.02
2019-03-31T00:31:22.126Z,81.91
2019-03-31T00:33:24.343Z,81.78
2019-03-31T00:35:31.086Z,81.78
2019-03-31T00:37:37.757Z,81.82
2019-03-31T00:39:44.453Z,81.82
2019-03-31T00:41:51.127Z,81.78
2019-03-31T00:43:57.784Z,81.78
2019-03-31T00:46:04.486Z,81.83
2019-03-31T00:48:11.164Z,81.72
2019-03-31T00:50:17.830Z,81.88
2019-03-31T00:52:24.526Z,81.75
2019-03-31T00:54:31.194Z,81.53
2019-03-31T00:56:37.927Z,81.31
2019-03-31T00:58:44.622Z,81.43
2019-03-31T01:00:53.067Z,81.89
2019-03-31T01:03:01.346Z,81.76
2019-03-31T01:05:08.130Z,81.86
2019-03-31T01:07:15.266Z,81.87
2019-03-31T01:09:26.721Z,82.00
2019-03-31T01:11:33.485Z,81.82
2019-03-31T01:13:40.515Z,81.74
2019-03-31T01:15:47.570Z,81.79
2019-03-31T01:17:55.063Z,81.88
2019-03-31T01:20:01.796Z,82.08
2019-03-31T01:22:09.060Z,82.23
2019-03-31T01:24:15.826Z,82.33
2019-03-31T01:26:23.363Z,82.37
2019-03-31T01:28:30.028Z,82.42
2019-03-31T01:30:36.912Z,82.45
2019-03-31T01:32:43.649Z,82.64
2019-03-31T01:34:50.453Z,82.49
2019-03-31T01:36:57.213Z,82.33
2019-03-31T01:39:05.757Z,82.28
2019-03-31T01:41:14.090Z,82.35
2019-03-31T01:43:20.986Z,82.35
2019-03-31T01:45:28.225Z,82.23
2019-03-31T01:47:34.895Z,82.17
2019-03-31T01:49:41.648Z,82.13
2019-03-31T01:51:49.198Z,82.24
2019-03-31T01:53:55.939Z,82.64
2019-03-31T01:56:02.629Z,82.60
2019-03-31T01:58:09.290Z,82.48
2019-03-31T02:00:27.596Z,82.52
2019-03-31T02:02:34.462Z,82.67
2019-03-31T02:04:41.197Z,82.87
2019-03-31T02:06:48.948Z,82.98
2019-03-31T02:08:55.634Z,82.97
2019-03-31T02:11:02.999Z,82.98
2019-03-31T02:13:10.870Z,83.01
2019-03-31T02:15:17.645Z,83.02
2019-03-31T02:17:24.309Z,83.00
2019-03-31T02:19:30.985Z,83.03
2019-03-31T02:21:37.671Z,83.16
2019-03-31T02:23:44.435Z,83.34
2019-03-31T02:25:51.100Z,83.41
2019-03-31T02:27:57.809Z,83.37
2019-03-31T02:30:06.260Z,83.33
2019-03-31T02:32:23.383Z,83.25
2019-03-31T02:34:22.475Z,83.39
2019-03-31T02:36:29.141Z,83.30
2019-03-31T02:38:35.947Z,83.40
2019-03-31T02:40:42.813Z,83.36
2019-03-31T02:42:49.488Z,83.34
2019-03-31T02:44:56.108Z,83.29
2019-03-31T02:47:02.859Z,83.13
2019-03-31T02:49:09.520Z,83.02
2019-03-31T02:51:16.191Z,83.47
2019-03-31T02:53:22.960Z,83.61
2019-03-31T02:55:29.660Z,83.56
2019-03-31T02:57:36.794Z,83.57
2019-03-31T02:59:44.413Z,83.59
2019-03-31T03:01:53.367Z,83.73
2019-03-31T03:04:02.136Z,83.76
2019-03-31T03:06:12.615Z,83.76
2019-03-31T03:08:20.979Z,83.87
2019-03-31T03:10:30.457Z,83.84
2019-03-31T03:12:40.115Z,83.80
2019-03-31T03:14:50.495Z,83.88
2019-03-31T03:16:57.148Z,83.87
2019-03-31T03:19:04.102Z,83.82
2019-03-31T03:21:10.865Z,83.95
2019-03-31T03:23:17.675Z,83.89
2019-03-31T03:25:24.660Z,83.88
2019-03-31T03:27:31.514Z,83.78
2019-03-31T03:29:38.307Z,83.82
2019-03-31T03:31:45.080Z,83.76
2019-03-31T03:33:51.860Z,83.88
2019-03-31T03:35:58.756Z,83.83
2019-03-31T03:38:05.531Z,83.95
2019-03-31T03:40:13.509Z,83.83
2019-03-31T03:42:20.190Z,83.69
2019-03-31T03:44:26.881Z,83.75
2019-03-31T03:46:33.923Z,83.66
2019-03-31T03:48:40.658Z,83.63
2019-03-31T03:50:47.426Z,83.57
2019-03-31T03:52:54.186Z,83.55
2019-03-31T03:55:00.922Z,83.62
2019-03-31T03:57:07.726Z,83.61
2019-03-31T03:59:14.464Z,83.60
2019-03-31T04:01:21.352Z,83.53
2019-03-31T04:03:30.486Z,83.47
2019-03-31T04:05:36.599Z,83.44
2019-03-31T04:07:43.376Z,83.41
2019-03-31T04:09:50.090Z,83.40
2019-03-31T04:11:56.760Z,83.37
2019-03-31T04:14:03.426Z,83.39
2019-03-31T04:16:10.310Z,83.34
2019-03-31T04:18:16.974Z,83.32
2019-03-31T04:20:23.622Z,83.24
2019-03-31T04:22:30.310Z,83.39
2019-03-31T04:24:37.052Z,83.34
2019-03-31T04:26:43.716Z,83.14
2019-03-31T04:28:50.390Z,82.97
2019-03-31T04:30:57.170Z,82.68
2019-03-31T04:33:03.908Z,82.40
2019-03-31T04:35:10.606Z,82.32
2019-03-31T04:37:17.276Z,82.13
2019-03-31T04:39:24.007Z,81.94
2019-03-31T04:41:30.692Z,81.57
2019-03-31T04:43:37.436Z,81.41
2019-03-31T04:45:44.095Z,80.92
2019-03-31T04:47:50.788Z,80.92
2019-03-31T04:49:57.447Z,80.61
2019-03-31T04:52:04.113Z,79.82
2019-03-31T04:54:10.816Z,79.42
2019-03-31T04:56:17.545Z,79.17
2019-03-31T04:58:24.203Z,78.67
2019-03-31T05:00:30.890Z,78.37
2019-03-31T05:02:37.715Z,78.01
2019-03-31T05:04:44.494Z,77.48
2019-03-31T05:06:51.181Z,77.02
2019-03-31T05:08:57.909Z,76.75
2019-03-31T05:11:05.541Z,76.21
2019-03-31T05:13:12.230Z,75.32
2019-03-31T05:15:18.971Z,74.63
2019-03-31T05:17:25.652Z,72.58
2019-03-31T05:19:32.400Z,65.98
2019-03-31T05:21:39.133Z,59.08
2019-03-31T05:23:45.803Z,53.74
2019-03-31T05:25:52.492Z,50.26
2019-03-31T05:27:59.330Z,48.77
2019-03-31T05:30:07.613Z,46.55
2019-03-31T05:32:14.406Z,43.57
2019-03-31T05:34:21.147Z,41.38
2019-03-31T05:36:27.815Z,39.38
2019-03-31T05:38:34.507Z,37.71
2019-03-31T05:40:42.174Z,36.93
2019-03-31T05:42:48.844Z,35.03
2019-03-31T05:44:55.607Z,33.93
2019-03-31T05:47:02.273Z,32.74
2019-03-31T05:49:08.945Z,32.16
2019-03-31T05:51:15.642Z,30.80
2019-03-31T05:53:22.387Z,30.17
2019-03-31T05:55:29.058Z,29.33
2019-03-31T05:57:35.792Z,28.62
2019-03-31T05:59:42.453Z,27.27
2019-03-31T06:01:49.196Z,27.01
2019-03-31T06:03:55.897Z,26.77
2019-03-31T06:06:02.624Z,26.30
2019-03-31T06:08:09.294Z,25.30
2019-03-31T06:10:16.065Z,24.90
2019-03-31T06:12:22.740Z,24.53
2019-03-31T06:14:29.490Z,24.20
2019-03-31T06:16:36.186Z,23.90
2019-03-31T06:18:42.934Z,23.72
2019-03-31T06:20:49.538Z,23.03
2019-03-31T06:22:56.235Z,22.68
2019-03-31T06:25:02.908Z,21.87
2019-03-31T06:27:09.572Z,21.16
2019-03-31T06:29:16.364Z,21.77
2019-03-31T06:31:23.104Z,21.13
2019-03-31T06:33:29.774Z,21.10
2019-03-31T06:35:36.474Z,20.69
2019-03-31T06:37:43.158Z,20.37
2019-03-31T06:39:50.926Z,19.67
2019-03-31T06:41:57.679Z,19.38
2019-03-31T06:44:04.442Z,19.00
2019-03-31T06:46:11.125Z,18.69
2019-03-31T06:48:17.840Z,19.02
2019-03-31T06:50:24.508Z,18.89
2019-03-31T06:52:31.180Z,18.30
2019-03-31T06:54:37.879Z,17.83
2019-03-31T06:56:47.097Z,17.40
2019-03-31T06:58:54.935Z,17.81
2019-03-31T07:01:01.926Z,17.24
2019-03-31T07:03:08.597Z,17.04
2019-03-31T07:05:15.264Z,17.14
2019-03-31T07:07:23.807Z,17.04
2019-03-31T07:09:30.319Z,17.00
2019-03-31T07:11:36.991Z,17.04
2019-03-31T07:13:43.689Z,16.78
2019-03-31T07:15:50.358Z,16.53
2019-03-31T07:17:57.020Z,16.01
2019-03-31T07:20:05.140Z,16.06
2019-03-31T07:22:11.809Z,16.03
2019-03-31T07:24:18.598Z,15.77
2019-03-31T07:26:25.286Z,15.74
2019-03-31T07:28:31.958Z,15.38
2019-03-31T07:30:38.642Z,15.80
2019-03-31T07:32:45.336Z,15.55
2019-03-31T07:34:52.012Z,15.51
2019-03-31T07:36:58.685Z,15.15
2019-03-31T07:39:07.317Z,15.20
2019-03-31T07:41:14.255Z,14.97
2019-03-31T07:43:22.166Z,15.38
2019-03-31T07:45:28.856Z,16.27
2019-03-31T07:47:35.609Z,18.37
2019-03-31T07:49:42.380Z,21.15
2019-03-31T07:51:49.072Z,23.98
2019-03-31T07:53:56.745Z,26.42
2019-03-31T07:56:03.549Z,28.04
2019-03-31T07:58:10.352Z,29.28
2019-03-31T08:00:20.614Z,30.88
2019-03-31T08:02:27.283Z,31.39
2019-03-31T08:04:34.043Z,32.87
2019-03-31T08:06:40.714Z,32.77
2019-03-31T08:08:47.446Z,33.27
2019-03-31T08:10:54.220Z,33.23
2019-03-31T08:13:00.969Z,33.84
2019-03-31T08:15:11.769Z,33.91
2019-03-31T08:17:18.526Z,33.84
2019-03-31T08:19:25.233Z,34.06
2019-03-31T08:21:31.901Z,33.96
2019-03-31T08:23:38.640Z,33.88
2019-03-31T08:25:45.304Z,34.50
2019-03-31T08:27:51.970Z,34.17
2019-03-31T08:30:00.787Z,34.00
2019-03-31T08:32:07.123Z,34.66
2019-03-31T08:34:13.866Z,34.22
2019-03-31T08:36:20.565Z,34.40
2019-03-31T08:38:27.239Z,35.38
2019-03-31T08:40:33.912Z,35.69
2019-03-31T08:42:40.610Z,35.06
2019-03-31T08:44:47.281Z,35.64
2019-03-31T08:46:54.016Z,34.49
2019-03-31T08:49:00.716Z,34.23
2019-03-31T08:51:07.451Z,33.89
2019-03-31T08:53:14.126Z,34.39
2019-03-31T08:55:20.825Z,33.91
2019-03-31T08:57:27.507Z,33.42
2019-03-31T08:59:34.174Z,33.65
2019-03-31T09:01:41.045Z,33.55
2019-03-31T09:03:47.712Z,34.35
2019-03-31T09:06:01.475Z,33.20
2019-03-31T09:08:02.788Z,33.94
2019-03-31T09:10:11.615Z,34.16
2019-03-31T09:12:17.410Z,33.86
2019-03-31T09:14:24.044Z,33.72
2019-03-31T09:16:30.707Z,32.68
2019-03-31T09:18:37.380Z,32.27
2019-03-31T09:20:44.091Z,32.75
2019-03-31T09:22:50.841Z,32.77
2019-03-31T09:24:57.592Z,32.80
2019-03-31T09:27:04.295Z,33.48
2019-03-31T09:29:11.041Z,34.15
2019-03-31T09:31:17.702Z,33.56
2019-03-31T09:33:24.499Z,32.27
2019-03-31T09:35:31.166Z,32.45
2019-03-31T09:37:38.002Z,32.34
2019-03-31T09:39:44.702Z,31.91
2019-03-31T09:41:51.314Z,31.79
2019-03-31T09:43:57.983Z,32.49
2019-03-31T09:46:04.678Z,32.81
2019-03-31T09:48:11.435Z,32.94
2019-03-31T09:50:19.503Z,32.77
2019-03-31T09:52:26.192Z,32.52
2019-03-31T09:54:32.949Z,32.32
2019-03-31T09:56:39.614Z,32.05
2019-03-31T09:58:46.313Z,31.95
2019-03-31T10:00:54.207Z,32.15
2019-03-31T10:03:01.203Z,32.63
2019-03-31T10:05:09.641Z,33.19
2019-03-31T10:07:16.512Z,33.60
2019-03-31T10:09:23.189Z,33.69
2019-03-31T10:11:29.881Z,33.24
2019-03-31T10:13:36.671Z,33.27
2019-03-31T10:15:43.342Z,32.46
2019-03-31T10:17:50.132Z,32.15
2019-03-31T10:19:56.904Z,31.97
2019-03-31T10:22:03.586Z,32.45
2019-03-31T10:24:11.527Z,32.54
2019-03-31T10:26:31.000Z,32.48
2019-03-31T10:28:26.767Z,32.25
2019-03-31T10:30:41.719Z,32.08
2019-03-31T10:32:48.482Z,32.41
2019-03-31T10:34:55.161Z,32.08
2019-03-31T10:37:01.859Z,31.93
2019-03-31T10:39:09.826Z,32.15
2019-03-31T10:41:16.493Z,31.65
2019-03-31T10:43:47.581Z,31.84
2019-03-31T10:45:56.417Z,31.87
2019-03-31T10:48:03.153Z,31.70
2019-03-31T10:50:10.452Z,31.51
2019-03-31T10:52:17.118Z,31.85
2019-03-31T10:54:23.789Z,31.83
2019-03-31T10:56:31.078Z,31.41
2019-03-31T10:58:38.761Z,31.13
2019-03-31T11:00:45.418Z,32.00
2019-03-31T11:02:52.114Z,32.88
2019-03-31T11:04:58.849Z,33.41
2019-03-31T11:07:05.599Z,33.37
2019-03-31T11:09:12.377Z,33.86
2019-03-31T11:11:19.035Z,34.09
2019-03-31T11:13:25.821Z,33.97
2019-03-31T11:15:32.622Z,34.07
2019-03-31T11:17:39.395Z,34.26
2019-03-31T11:19:46.055Z,33.51
2019-03-31T11:21:57.132Z,33.33
2019-03-31T11:24:03.873Z,33.04
2019-03-31T11:26:10.539Z,32.76
2019-03-31T11:28:17.240Z,33.09
2019-03-31T11:30:25.091Z,33.29
2019-03-31T11:32:31.764Z,33.52
2019-03-31T11:34:38.473Z,33.56
2019-03-31T11:36:45.139Z,34.04
2019-03-31T11:38:52.809Z,33.98
2019-03-31T11:40:59.512Z,34.38
2019-03-31T11:43:06.189Z,34.39
2019-03-31T11:45:15.121Z,34.54
2019-03-31T11:47:21.916Z,34.53
2019-03-31T11:49:28.615Z,34.10
2019-03-31T11:51:35.346Z,34.56
2019-03-31T11:53:42.113Z,33.86
2019-03-31T11:55:48.784Z,33.71
2019-03-31T11:57:55.453Z,33.19
2019-03-31T12:00:02.218Z,32.72
2019-03-31T12:02:09.050Z,32.67
2019-03-31T12:04:15.717Z,31.95
2019-03-31T12:06:22.509Z,32.00
2019-03-31T12:08:29.170Z,32.78
2019-03-31T12:10:36.214Z,33.28
2019-03-31T12:12:42.976Z,32.94
2019-03-31T12:15:00.457Z,33.63
2019-03-31T12:16:58.156Z,34.08
2019-03-31T12:19:04.859Z,34.47
2019-03-31T12:21:11.601Z,34.30
2019-03-31T12:23:18.339Z,34.43
2019-03-31T12:25:25.031Z,34.75
2019-03-31T12:28:20.359Z,34.71
2019-03-31T12:30:31.039Z,34.88
2019-03-31T12:36:18.544Z,36.34
2019-03-31T12:38:25.217Z,37.97
2019-03-31T12:40:37.199Z,38.40
2019-03-31T12:42:45.946Z,38.23
2019-03-31T12:44:52.709Z,38.43
2019-03-31T12:54:39.609Z,40.12
2019-03-31T12:56:48.053Z,40.36
2019-03-31T12:58:54.719Z,40.45
2019-03-31T13:01:02.965Z,40.65
2019-03-31T13:03:09.644Z,40.86
2019-03-31T13:24:36.721Z,42.15
2019-03-31T13:30:22.172Z,41.84
2019-03-31T13:32:29.084Z,41.81
2019-03-31T13:54:19.743Z,41.46
2019-03-31T13:56:26.838Z,41.40
2019-03-31T13:58:35.999Z,41.90
2019-03-31T14:00:43.059Z,41.90
2019-03-31T14:09:25.814Z,40.75
2019-03-31T14:11:32.553Z,40.71
2019-03-31T14:13:39.331Z,40.80
2019-03-31T14:15:46.098Z,40.72
2019-03-31T14:17:52.770Z,40.90
2019-03-31T14:19:59.508Z,41.06
2019-03-31T14:22:06.275Z,41.10
2019-03-31T14:24:12.946Z,41.08
2019-03-31T14:26:19.613Z,41.18
2019-03-31T14:28:26.312Z,41.51
2019-03-31T14:30:33.101Z,42.33
2019-03-31T14:32:39.923Z,42.63
2019-03-31T14:34:46.620Z,42.37
2019-03-31T14:36:53.297Z,42.66
2019-03-31T14:38:59.976Z,42.58
2019-03-31T14:41:06.757Z,42.56
2019-03-31T14:43:13.419Z,43.20
2019-03-31T14:45:35.181Z,43.08
2019-03-31T14:47:41.942Z,43.24
2019-03-31T14:49:48.689Z,43.32
2019-03-31T14:51:55.358Z,43.18
2019-03-31T14:54:02.123Z,42.98
2019-03-31T14:56:08.866Z,42.63
2019-03-31T14:58:15.538Z,42.44
2019-03-31T15:00:23.833Z,42.22
2019-03-31T15:02:30.506Z,42.26
2019-03-31T15:04:37.237Z,42.32
2019-03-31T15:06:44.014Z,42.34
2019-03-31T15:08:54.516Z,42.59
2019-03-31T15:10:59.091Z,42.83
2019-03-31T15:13:06.070Z,43.13
2019-03-31T15:15:12.843Z,43.27
2019-03-31T15:17:20.714Z,43.07
2019-03-31T15:19:27.517Z,43.18
2019-03-31T15:21:34.189Z,43.23
2019-03-31T15:23:40.866Z,43.31
2019-03-31T15:25:49.040Z,43.67
2019-03-31T15:27:55.785Z,43.87
2019-03-31T15:30:02.951Z,43.89
2019-03-31T15:32:10.817Z,44.07
2019-03-31T15:34:17.575Z,44.67
2019-03-31T15:36:24.264Z,44.69
2019-03-31T15:38:31.015Z,45.61
2019-03-31T15:40:37.688Z,45.71
2019-03-31T15:42:44.384Z,45.73
2019-03-31T15:44:51.200Z,45.58
2019-03-31T15:46:57.906Z,45.07
2019-03-31T15:49:04.723Z,44.99
2019-03-31T15:51:11.512Z,45.88
2019-03-31T15:53:18.178Z,44.91
2019-03-31T15:55:24.926Z,44.55
2019-03-31T15:57:31.692Z,44.35
2019-03-31T15:59:38.450Z,43.80
2019-03-31T16:01:45.258Z,44.09
2019-03-31T16:03:52.111Z,43.85
2019-03-31T16:05:58.811Z,43.87
2019-03-31T16:08:05.540Z,43.83
2019-03-31T16:10:12.515Z,43.98
2019-03-31T16:12:21.256Z,43.61
2019-03-31T16:14:29.288Z,43.78
2019-03-31T16:16:35.991Z,43.67
2019-03-31T16:18:42.738Z,43.77
2019-03-31T16:20:51.280Z,43.56
2019-03-31T16:22:58.858Z,43.50
2019-03-31T16:25:12.011Z,43.60
2019-03-31T16:27:18.739Z,43.71
2019-03-31T16:29:25.503Z,43.43
2019-03-31T16:31:32.202Z,43.63
2019-03-31T16:33:40.741Z,43.33
2019-03-31T16:35:49.145Z,43.54
2019-03-31T16:37:55.863Z,43.90
2019-03-31T16:40:02.689Z,44.53
2019-03-31T16:42:10.010Z,44.34
2019-03-31T16:44:16.746Z,45.23
2019-03-31T16:46:23.499Z,45.63
2019-03-31T16:48:30.202Z,45.33
2019-03-31T16:50:36.937Z,45.60
2019-03-31T16:52:43.701Z,45.82
2019-03-31T16:54:51.650Z,46.12
2019-03-31T16:56:59.314Z,46.02
2019-03-31T16:59:06.063Z,46.12
2019-03-31T17:01:12.848Z,46.25
2019-03-31T17:03:19.525Z,46.50
2019-03-31T17:05:26.262Z,46.26
2019-03-31T17:07:33.074Z,46.31
2019-03-31T17:09:50.959Z,46.41
2019-03-31T17:11:48.175Z,46.65
2019-03-31T17:13:55.019Z,47.15
2019-03-31T17:16:01.874Z,47.18
2019-03-31T17:18:08.674Z,47.48
2019-03-31T17:20:15.576Z,47.74
2019-03-31T17:22:22.308Z,48.12
2019-03-31T17:24:29.005Z,48.14
2019-03-31T17:26:35.747Z,48.31
2019-03-31T17:28:42.532Z,48.92
2019-03-31T17:30:49.378Z,48.93
2019-03-31T17:32:56.086Z,49.46
2019-03-31T17:35:02.826Z,49.71
2019-03-31T17:37:09.642Z,49.61
2019-03-31T17:39:16.542Z,49.73
2019-03-31T17:41:23.330Z,49.85
2019-03-31T17:43:31.422Z,50.28
2019-03-31T17:45:38.316Z,50.50
2019-03-31T17:47:45.146Z,50.71
2019-03-31T17:49:51.843Z,51.13
2019-03-31T17:52:01.360Z,51.41
2019-03-31T17:54:08.332Z,51.54
2019-03-31T17:56:15.069Z,51.73
2019-03-31T17:58:23.224Z,52.17
2019-03-31T18:00:29.945Z,52.52
2019-03-31T18:02:36.692Z,52.78
2019-03-31T18:04:43.490Z,52.53
2019-03-31T18:06:53.014Z,52.82
2019-03-31T18:09:01.249Z,53.78
2019-03-31T18:11:09.565Z,52.98
2019-03-31T18:13:16.222Z,52.87
2019-03-31T18:15:22.970Z,53.13
2019-03-31T18:17:29.728Z,53.55
2019-03-31T18:19:36.467Z,52.93
2019-03-31T18:21:43.130Z,52.98
2019-03-31T18:23:49.893Z,52.84
2019-03-31T18:25:56.556Z,53.14
2019-03-31T18:28:03.290Z,53.10
2019-03-31T18:30:11.756Z,51.91
2019-03-31T18:32:19.688Z,51.35
2019-03-31T18:34:26.629Z,50.16
2019-03-31T18:36:36.828Z,50.06
2019-03-31T18:38:43.032Z,50.59
2019-03-31T18:40:49.772Z,49.92
2019-03-31T18:42:56.611Z,50.23
2019-03-31T18:45:03.469Z,49.19
2019-03-31T18:47:11.785Z,49.51
2019-03-31T18:49:18.554Z,49.10
2019-03-31T18:51:26.997Z,48.87
2019-03-31T18:53:41.052Z,48.25
2019-03-31T18:55:49.460Z,47.35
2019-03-31T18:58:05.523Z,47.16
2019-03-31T19:00:14.305Z,46.73
2019-03-31T19:02:40.743Z,46.84
2019-03-31T19:04:50.707Z,46.05
2019-03-31T19:07:10.151Z,45.69
2019-03-31T19:09:18.711Z,44.21
2019-03-31T19:11:25.234Z,43.74
2019-03-31T19:13:54.498Z,43.59
2019-03-31T19:16:05.860Z,43.42
2019-03-31T19:18:15.823Z,43.21
2019-03-31T19:20:25.144Z,42.63
2019-03-31T19:22:39.283Z,41.77
2019-03-31T19:24:47.658Z,41.24
2019-03-31T19:27:00.011Z,40.80
2019-03-31T19:29:26.217Z,40.34
2019-03-31T19:31:37.904Z,40.09
2019-03-31T19:33:50.546Z,40.01
2019-03-31T19:35:57.122Z,40.33
2019-03-31T19:38:14.544Z,40.38
2019-03-31T19:40:30.314Z,40.39
2019-03-31T19:42:38.760Z,40.30
2019-03-31T19:44:53.419Z,40.51
2019-03-31T19:47:01.973Z,40.13
2019-03-31T19:49:15.148Z,40.42
2019-03-31T19:51:27.723Z,40.22
2019-03-31T19:53:37.416Z,40.16
2019-03-31T19:55:44.428Z,40.59
2019-03-31T19:57:58.498Z,41.03
2019-03-31T20:00:11.023Z,41.13
2019-03-31T20:02:20.081Z,41.49
2019-03-31T20:04:38.372Z,41.87
2019-03-31T20:06:57.165Z,42.49
2019-03-31T20:09:22.637Z,43.03
2019-03-31T20:11:31.086Z,43.51
2019-03-31T20:13:37.578Z,44.33
2019-03-31T20:15:45.997Z,45.19
2019-03-31T20:18:09.523Z,45.76
2019-03-31T20:20:34.052Z,46.34
2019-03-31T20:22:40.669Z,46.91
2019-03-31T20:24:51.895Z,47.58
2019-03-31T20:27:03.179Z,48.05
2019-03-31T20:29:16.407Z,48.43
2019-03-31T20:31:34.301Z,48.77
2019-03-31T20:33:58.787Z,49.19
2019-03-31T20:36:19.245Z,49.46
2019-03-31T20:38:28.963Z,49.76
2019-03-31T20:40:46.386Z,49.70
2019-03-31T20:42:57.796Z,49.75
2019-03-31T20:45:09.829Z,49.53
2019-03-31T20:47:16.602Z,49.58
2019-03-31T20:49:23.470Z,49.84
2019-03-31T20:51:30.556Z,50.11
2019-03-31T20:53:37.591Z,50.53
2019-03-31T20:55:44.406Z,50.73
2019-03-31T20:57:52.240Z,51.04
2019-03-31T20:59:59.014Z,51.51
2019-03-31T21:02:05.840Z,50.88
2019-03-31T21:04:12.649Z,51.52
2019-03-31T21:06:19.507Z,51.55
2019-03-31T21:08:26.343Z,51.05
2019-03-31T21:10:34.311Z,51.34
2019-03-31T21:12:41.023Z,50.51
2019-03-31T21:14:47.892Z,50.62
2019-03-31T21:16:54.598Z,50.68
2019-03-31T21:19:01.311Z,51.13
2019-03-31T21:21:08.263Z,51.26
2019-03-31T21:23:14.992Z,51.57
2019-03-31T21:25:21.711Z,51.92
2019-03-31T21:27:28.509Z,52.49
2019-03-31T21:29:36.552Z,52.95
2019-03-31T21:31:43.220Z,53.28
2019-03-31T21:33:49.977Z,53.51
2019-03-31T21:35:56.708Z,53.67
2019-03-31T21:38:03.788Z,53.91
2019-03-31T21:40:10.615Z,53.88
2019-03-31T21:42:19.251Z,53.92
2019-03-31T21:44:26.594Z,53.96
2019-03-31T21:46:33.287Z,53.74
2019-03-31T21:48:39.972Z,53.87
2019-03-31T21:50:47.320Z,53.76
2019-03-31T21:52:54.330Z,53.59
2019-03-31T21:55:01.079Z,53.29
2019-03-31T21:57:07.740Z,52.99
2019-03-31T21:59:14.502Z,53.21
2019-03-31T22:01:21.242Z,53.24
2019-03-31T22:03:28.070Z,53.19
2019-03-31T22:05:34.788Z,53.28
2019-03-31T22:07:41.530Z,53.34
2019-03-31T22:09:48.328Z,53.23
2019-03-31T22:11:55.030Z,53.74
2019-03-31T22:14:01.830Z,53.49
2019-03-31T22:16:08.571Z,53.42
2019-03-31T22:18:15.462Z,53.96
2019-03-31T22:20:22.195Z,53.72
2019-03-31T22:22:28.930Z,53.71
2019-03-31T22:24:35.689Z,53.83
2019-03-31T22:26:42.355Z,53.80
2019-03-31T22:28:49.279Z,53.94
2019-03-31T22:30:56.120Z,54.11
2019-03-31T22:33:02.789Z,54.25
2019-03-31T22:35:09.455Z,54.52
2019-03-31T22:37:16.142Z,54.64
2019-03-31T22:39:22.813Z,54.93
2019-03-31T22:41:29.478Z,55.15
2019-03-31T22:43:36.175Z,55.21
2019-03-31T22:45:42.840Z,55.19
2019-03-31T22:47:49.890Z,55.38
2019-03-31T22:49:58.445Z,55.48
2019-03-31T22:52:05.179Z,55.57
2019-03-31T22:54:11.849Z,55.71
2019-03-31T22:56:18.781Z,55.83
2019-03-31T22:58:26.320Z,56.02
2019-03-31T23:00:33.046Z,56.20
2019-03-31T23:02:39.810Z,56.64
2019-03-31T23:04:46.550Z,56.86
2019-03-31T23:06:53.210Z,57.14
2019-03-31T23:08:59.981Z,57.39
2019-03-31T23:11:06.653Z,57.41
2019-03-31T23:13:13.321Z,57.35
2019-03-31T23:15:20.008Z,57.67
2019-03-31T23:17:26.668Z,58.13
2019-03-31T23:19:33.522Z,58.18
2019-03-31T23:21:40.198Z,57.89
2019-03-31T23:23:46.861Z,58.16
2019-03-31T23:25:53.527Z,58.38
2019-03-31T23:28:00.217Z,58.38
2019-03-31T23:30:10.859Z,58.67
2019-03-31T23:32:17.582Z,58.51
2019-03-31T23:34:24.334Z,58.32
2019-03-31T23:36:30.995Z,58.50
2019-03-31T23:38:37.666Z,58.66
2019-03-31T23:40:44.367Z,58.81
2019-03-31T23:42:51.223Z,58.96
2019-03-31T23:47:08.518Z,59.11
2019-03-31T23:49:15.177Z,59.21
2019-03-31T23:51:21.836Z,59.17
2019-03-31T23:53:28.633Z,59.02
2019-03-31T23:55:35.371Z,59.15
2019-03-31T23:57:45.134Z,58.96
2019-03-31T23:59:52.283Z,59.12
